Flag for Australia

Past Weather in 38°26'43.9"S, 145°14'27.6"E, Australia — Yesterday and Last 2 Weeks

Currently: 45 °F. Passing clouds. (Weather station: Melbourne Airport, Australia). See more current weather

Past Weather in 38°26'43.9"S, 145°14'27.6"E — Graph

°F

38°26'43.9"S, 145°14'27.6"E Temperature Yesterday

Maximum temperature yesterday: 55 °F (at 1:30 pm)
Minimum temperature yesterday: 41 °F (at 8:30 pm)
Average temperature yesterday: 48 °F

High & Low Weather Summary for the Past Weeks

 TemperatureHumidityPressure
High68 °F (May 8, 2:30 pm)100% (May 4, 4:00 am)30.51 "Hg (May 4, 4:00 am)
Low41 °F (May 15, 4:30 am)44% (May 18, 2:30 pm)30.15 "Hg (May 12, 3:00 pm)
Average54 °F81%30.36 "Hg
* Reported May 4 1:00 am — May 19 1:30 am, 38°26'43.9"S, 145°14'27.6"E. Weather by CustomWeather, © 2024

Note: Actual official high and low records may vary slightly from our data, if they occured in-between our weather recording intervals... More about our weather records

38°26'43.9"S, 145°14'27.6"E Weather History for the Previous 24 Hours

Scroll right to see more
 ConditionsComfort  
Time TempWeatherWind HumidityBarometerVisibility
1:30 am
Sun, May 19
45 °FPassing clouds.8 mph76%30.33 "HgN/A
1:00 am43 °FPassing clouds.9 mph81%30.36 "HgN/A
12:00 am41 °FPassing clouds.9 mph87%30.36 "HgN/A
11:30 pm
Sat, May 18
41 °FMostly cloudy.8 mph81%30.39 "HgN/A
11:00 pm41 °FPassing clouds.9 mph81%30.39 "HgN/A
10:30 pm41 °FClear.8 mph81%30.39 "Hg10 mi
10:00 pm41 °FClear.8 mph81%30.39 "Hg10 mi
9:30 pm41 °FClear.9 mph81%30.42 "Hg10 mi
9:00 pm41 °FClear.7 mph81%30.39 "Hg10 mi
8:30 pm41 °FClear.1 mph81%30.42 "Hg10 mi
8:00 pm46 °FClear.No wind66%30.42 "HgN/A
7:30 pm46 °FClear.No wind66%30.42 "HgN/A
7:00 pm46 °FClear.2 mph66%30.42 "HgN/A
6:30 pm46 °FClear.No wind62%30.42 "HgN/A
6:00 pm46 °FClear.5 mph66%30.42 "Hg10 mi
5:00 pm50 °FScattered clouds.8 mph58%30.42 "HgN/A
4:30 pm52 °FPassing clouds.8 mph54%30.42 "HgN/A
4:00 pm54 °FPassing clouds.10 mph51%30.45 "HgN/A
3:30 pm54 °FPassing clouds.10 mph47%30.45 "HgN/A
3:00 pm54 °FPassing clouds.12 mph47%30.45 "HgN/A
2:30 pm55 °FPassing clouds.13 mph44%30.45 "HgN/A
2:00 pm54 °FPassing clouds.13 mph47%30.45 "HgN/A
1:30 pm55 °FPassing clouds.14 mph47%30.45 "HgN/A
1:00 pm54 °FPassing clouds.13 mph51%30.45 "HgN/A
12:30 pm54 °FPassing clouds.12 mph47%30.48 "HgN/A
12:00 pm54 °FPassing clouds.15 mph51%30.48 "HgN/A
11:30 am54 °FPassing clouds.16 mph54%30.51 "HgN/A
11:00 am54 °FPassing clouds.15 mph47%30.51 "HgN/A
10:30 am54 °FPassing clouds.14 mph51%30.51 "HgN/A
10:00 am52 °FPassing clouds.13 mph54%30.51 "HgN/A
9:30 am50 °FPassing clouds.13 mph58%30.51 "HgN/A
9:00 am52 °FPassing clouds.13 mph54%30.48 "HgN/A
8:30 am46 °FScattered clouds.5 mph76%30.48 "HgN/A
8:00 am46 °FPassing clouds.8 mph66%30.48 "HgN/A
7:30 am45 °FPassing clouds.10 mph71%30.48 "HgN/A
7:00 am45 °FPassing clouds.12 mph71%30.45 "HgN/A
6:30 am46 °FPassing clouds.13 mph66%30.45 "HgN/A
6:00 am46 °FPassing clouds.14 mph66%30.45 "HgN/A
5:30 am48 °FPassing clouds.12 mph62%30.45 "HgN/A
5:00 am46 °FPassing clouds.13 mph62%30.45 "HgN/A
4:00 am48 °FClear.14 mph62%30.42 "Hg10 mi
3:30 am48 °FPassing clouds.13 mph66%30.42 "HgN/A
3:00 am48 °FPartly cloudy.12 mph71%30.42 "HgN/A
2:30 am46 °FSprinkles. Passing clouds.7 mph87%30.42 "HgN/A
2:00 am46 °FSprinkles. Passing clouds.7 mph87%30.45 "HgN/A
Weather by CustomWeather, © 2024

See weather overview